createdAt,value
2019-05-14T00:03:41.598Z,1022.59
2019-05-14T00:08:41.973Z,1022.55
2019-05-14T00:13:41.495Z,1022.54
2019-05-14T00:18:41.966Z,1022.58
2019-05-14T00:23:42.043Z,1022.56
2019-05-14T00:28:42.216Z,1022.55
2019-05-14T00:33:41.921Z,1022.54
2019-05-14T00:38:42.020Z,1022.57
2019-05-14T00:43:41.721Z,1022.62
2019-05-14T00:48:42.244Z,1022.66
2019-05-14T00:53:42.135Z,1022.66
2019-05-14T00:58:41.474Z,1022.61
2019-05-14T01:03:41.492Z,1022.58
2019-05-14T01:08:41.378Z,1022.54
2019-05-14T01:13:41.640Z,1022.54
2019-05-14T01:18:41.435Z,1022.44
2019-05-14T01:23:41.513Z,1022.54
2019-05-14T01:28:41.538Z,1022.59
2019-05-14T01:33:41.088Z,1022.61
2019-05-14T01:38:41.833Z,1022.54
2019-05-14T01:43:41.973Z,1022.48
2019-05-14T01:48:41.720Z,1022.43
2019-05-14T01:53:41.674Z,1022.42
2019-05-14T01:58:41.694Z,1022.41
2019-05-14T02:03:41.138Z,1022.31
2019-05-14T02:08:41.383Z,1022.28
2019-05-14T02:13:41.393Z,1022.29
2019-05-14T02:18:41.640Z,1022.36
2019-05-14T02:23:42.010Z,1022.30
2019-05-14T02:28:41.943Z,1022.29
2019-05-14T02:33:40.023Z,1022.24
2019-05-14T02:38:39.976Z,1022.16
2019-05-14T02:43:40.863Z,1022.22
2019-05-14T02:48:40.411Z,1022.08
2019-05-14T02:53:39.757Z,1022.12
2019-05-14T02:58:40.294Z,1022.13
2019-05-14T03:03:40.372Z,1022.02
2019-05-14T03:08:39.648Z,1022.10
2019-05-14T03:13:40.225Z,1022.02
2019-05-14T03:18:39.849Z,1022.07
2019-05-14T03:23:39.629Z,1022.00
2019-05-14T03:28:40.118Z,1022.21
2019-05-14T03:33:44.158Z,1022.30
2019-05-14T03:38:40.381Z,1022.27
2019-05-14T03:43:39.357Z,1022.33
2019-05-14T03:48:40.124Z,1022.35
2019-05-14T03:53:55.116Z,1022.26
2019-05-14T03:58:40.078Z,1022.25
2019-05-14T04:03:39.862Z,1022.25
2019-05-14T04:08:39.369Z,1022.19
2019-05-14T04:13:40.554Z,1022.13
2019-05-14T04:18:40.256Z,1022.11
2019-05-14T04:23:39.889Z,1022.14
2019-05-14T04:28:39.422Z,1022.22
2019-05-14T04:33:39.386Z,1022.22
2019-05-14T04:38:41.018Z,1022.27
2019-05-14T04:43:40.067Z,1022.31
2019-05-14T04:48:42.949Z,1022.34
2019-05-14T04:53:39.756Z,1022.49
2019-05-14T04:58:41.026Z,1022.37
2019-05-14T05:03:40.104Z,1022.42
2019-05-14T05:08:39.455Z,1022.38
2019-05-14T05:13:39.523Z,1022.43
2019-05-14T05:18:39.950Z,1022.38
2019-05-14T05:23:38.917Z,1022.37
2019-05-14T05:28:39.232Z,1022.35
2019-05-14T05:33:38.456Z,1022.36
2019-05-14T05:38:39.443Z,1022.34
2019-05-14T05:43:39.283Z,1022.25
2019-05-14T05:48:38.929Z,1022.23
2019-05-14T05:53:39.398Z,1022.18
2019-05-14T05:58:39.874Z,1022.21
2019-05-14T06:03:39.250Z,1022.08
2019-05-14T06:08:38.833Z,1022.01
2019-05-14T06:13:39.147Z,1021.97
2019-05-14T06:18:39.265Z,1021.78
2019-05-14T06:23:38.586Z,1021.77
2019-05-14T06:28:40.804Z,1021.66
2019-05-14T06:33:39.721Z,1021.77
2019-05-14T06:38:38.851Z,1021.77
2019-05-14T06:43:39.309Z,1021.80
2019-05-14T06:48:39.694Z,1021.75
2019-05-14T06:53:39.163Z,1021.70
2019-05-14T06:58:38.979Z,1021.65
2019-05-14T07:03:38.248Z,1021.55
2019-05-14T07:08:39.241Z,1021.53
2019-05-14T07:13:38.514Z,1021.53
2019-05-14T07:18:47.722Z,1021.43
2019-05-14T07:23:38.613Z,1021.44
2019-05-14T07:28:42.160Z,1021.46
2019-05-14T07:33:38.843Z,1021.52
2019-05-14T07:38:39.179Z,1021.54
2019-05-14T07:43:39.111Z,1021.52
2019-05-14T07:48:38.973Z,1021.43
2019-05-14T07:53:41.740Z,1021.41
2019-05-14T07:58:38.692Z,1021.30
2019-05-14T08:03:38.264Z,1021.38
2019-05-14T08:08:38.486Z,1021.27
2019-05-14T08:13:38.765Z,1021.28
2019-05-14T08:18:39.328Z,1021.34
2019-05-14T08:23:38.917Z,1021.32
2019-05-14T08:28:38.247Z,1021.31
2019-05-14T08:33:36.358Z,1021.24
2019-05-14T08:38:38.338Z,1021.25
2019-05-14T08:43:36.302Z,1021.21
2019-05-14T08:48:38.605Z,1021.21
2019-05-14T08:53:38.409Z,1021.23
2019-05-14T08:58:38.305Z,1021.21
2019-05-14T09:03:38.645Z,1021.27
2019-05-14T09:08:38.679Z,1021.18
2019-05-14T09:13:38.093Z,1021.18
2019-05-14T09:18:38.245Z,1021.09
2019-05-14T09:23:35.978Z,1020.94
2019-05-14T09:28:35.946Z,1020.96
2019-05-14T09:33:38.664Z,1020.76
2019-05-14T09:38:41.626Z,1020.77
2019-05-14T09:43:39.017Z,1020.50
2019-05-14T09:48:37.849Z,1020.43
2019-05-14T09:53:38.142Z,1020.52
2019-05-14T09:58:35.671Z,1020.39
2019-05-14T10:03:35.542Z,1020.42
2019-05-14T10:08:35.570Z,1020.46
2019-05-14T10:13:35.444Z,1020.34
2019-05-14T10:18:37.860Z,1020.27
2019-05-14T10:23:35.392Z,1020.40
2019-05-14T10:28:35.373Z,1020.42
2019-05-14T10:33:35.317Z,1020.43
2019-05-14T10:38:35.658Z,1020.33
2019-05-14T10:43:35.816Z,1020.29
2019-05-14T10:48:35.161Z,1020.30
2019-05-14T10:53:35.140Z,1020.30
2019-05-14T10:58:35.080Z,1020.21
2019-05-14T11:03:35.068Z,1020.09
2019-05-14T11:08:34.964Z,1019.98
2019-05-14T11:13:34.932Z,1019.97
2019-05-14T11:18:34.877Z,1019.76
2019-05-14T11:23:35.000Z,1019.65
2019-05-14T11:28:34.802Z,1019.76
2019-05-14T11:33:34.764Z,1019.58
2019-05-14T11:38:37.381Z,1019.60
2019-05-14T11:43:34.689Z,1019.68
2019-05-14T11:48:34.629Z,1019.51
2019-05-14T11:53:34.654Z,1019.57
2019-05-14T11:58:34.585Z,1019.42
2019-05-14T12:03:34.504Z,1019.35
2019-05-14T12:08:34.460Z,1019.27
2019-05-14T12:13:34.463Z,1019.19
2019-05-14T12:18:34.477Z,1019.10
2019-05-14T12:23:34.338Z,1018.97
2019-05-14T12:28:34.282Z,1018.92
2019-05-14T12:33:34.255Z,1018.79
2019-05-14T12:38:34.376Z,1018.73
2019-05-14T12:43:34.175Z,1018.64
2019-05-14T12:48:34.158Z,1018.64
2019-05-14T12:53:34.086Z,1018.58
2019-05-14T12:58:34.050Z,1018.50
2019-05-14T13:03:34.014Z,1018.45
2019-05-14T13:08:34.008Z,1018.55
2019-05-14T13:13:33.937Z,1018.54
2019-05-14T13:18:33.877Z,1018.41
2019-05-14T13:23:34.863Z,1018.40
2019-05-14T13:28:33.867Z,1018.36
2019-05-14T13:33:33.747Z,1018.36
2019-05-14T13:38:33.705Z,1018.25
2019-05-14T13:43:33.756Z,1018.25
2019-05-14T13:48:33.632Z,1018.20
2019-05-14T13:53:33.580Z,1018.10
2019-05-14T13:58:33.578Z,1018.07
2019-05-14T14:03:33.507Z,1018.00
2019-05-14T14:08:33.512Z,1017.92
2019-05-14T14:13:33.398Z,1017.82
2019-05-14T14:18:33.405Z,1017.74
2019-05-14T14:23:33.335Z,1017.67
2019-05-14T14:28:33.294Z,1017.73
2019-05-14T14:33:33.242Z,1017.75
2019-05-14T14:38:33.569Z,1017.64
2019-05-14T14:43:33.160Z,1017.62
2019-05-14T14:48:33.130Z,1017.57
2019-05-14T14:53:51.088Z,1017.50
2019-05-14T14:58:34.045Z,1017.45
2019-05-14T15:03:33.159Z,1017.38
2019-05-14T15:08:33.062Z,1017.35
2019-05-14T15:13:32.925Z,1017.35
2019-05-14T15:18:32.901Z,1017.13
2019-05-14T15:23:32.869Z,1016.95
2019-05-14T15:28:32.808Z,1016.96
2019-05-14T15:33:33.044Z,1016.88
2019-05-14T15:38:32.742Z,1016.95
2019-05-14T15:43:32.680Z,1016.88
2019-05-14T15:48:32.620Z,1016.75
2019-05-14T15:53:33.711Z,1016.74
2019-05-14T15:58:32.590Z,1016.66
2019-05-14T16:03:32.489Z,1016.55
2019-05-14T16:08:32.567Z,1016.66
2019-05-14T16:13:32.402Z,1016.53
2019-05-14T16:18:32.476Z,1016.46
2019-05-14T16:23:38.592Z,1016.52
2019-05-14T16:28:32.415Z,1016.51
2019-05-14T16:33:33.251Z,1016.48
2019-05-14T16:38:32.156Z,1016.56
2019-05-14T16:43:32.718Z,1016.57
2019-05-14T16:48:32.153Z,1016.54
2019-05-14T16:53:32.219Z,1016.54
2019-05-14T16:58:32.007Z,1016.53
2019-05-14T17:03:33.019Z,1016.53
2019-05-14T17:08:31.984Z,1016.48
2019-05-14T17:13:31.858Z,1016.54
2019-05-14T17:18:31.902Z,1016.60
2019-05-14T17:23:31.823Z,1016.59
2019-05-14T17:28:31.758Z,1016.49
2019-05-14T17:33:31.709Z,1016.51
2019-05-14T17:38:31.674Z,1016.52
2019-05-14T17:43:31.681Z,1016.47
2019-05-14T17:48:31.597Z,1016.47
2019-05-14T17:53:31.533Z,1016.44
2019-05-14T17:58:31.420Z,1016.40
2019-05-14T18:03:31.516Z,1016.40
2019-05-14T18:08:31.574Z,1016.35
2019-05-14T18:13:31.309Z,1016.32
2019-05-14T18:18:31.449Z,1016.29
2019-05-14T18:23:31.257Z,1016.30
2019-05-14T18:28:31.149Z,1016.28
2019-05-14T18:33:31.676Z,1016.30
2019-05-14T18:38:31.059Z,1016.23
2019-05-14T18:43:30.985Z,1016.24
2019-05-14T18:48:30.951Z,1016.16
2019-05-14T18:53:31.361Z,1016.15
2019-05-14T18:58:30.838Z,1016.09
2019-05-14T19:03:30.916Z,1016.07
2019-05-14T19:08:30.837Z,1016.14
2019-05-14T19:13:30.750Z,1016.11
2019-05-14T19:18:30.703Z,1016.16
2019-05-14T19:23:30.750Z,1016.20
2019-05-14T19:28:30.825Z,1016.16
2019-05-14T19:33:30.503Z,1016.32
2019-05-14T19:38:30.383Z,1016.22
2019-05-14T19:43:30.363Z,1016.22
2019-05-14T19:48:32.762Z,1016.22
2019-05-14T19:53:30.311Z,1016.29
2019-05-14T19:58:30.263Z,1016.23
2019-05-14T20:03:30.130Z,1016.19
2019-05-14T20:08:30.110Z,1016.19
2019-05-14T20:13:30.010Z,1016.25
2019-05-14T20:18:29.950Z,1016.25
2019-05-14T20:23:30.198Z,1016.28
2019-05-14T20:28:29.913Z,1016.21
2019-05-14T20:33:29.876Z,1016.24
2019-05-14T20:38:29.940Z,1016.15
2019-05-14T20:43:29.715Z,1016.10
2019-05-14T20:48:29.673Z,1016.18
2019-05-14T20:53:29.607Z,1016.06
2019-05-14T20:58:29.597Z,1016.11
2019-05-14T21:03:29.527Z,1015.99
2019-05-14T21:08:29.415Z,1016.02
2019-05-14T21:13:29.377Z,1015.98
2019-05-14T21:18:35.051Z,1015.96
2019-05-14T21:23:30.300Z,1015.97
2019-05-14T21:28:30.324Z,1015.98
2019-05-14T21:33:30.319Z,1016.02
2019-05-14T21:38:29.106Z,1016.08
2019-05-14T21:43:29.175Z,1016.04
2019-05-14T21:48:29.024Z,1016.02
2019-05-14T21:53:28.957Z,1015.97
2019-05-14T21:58:29.266Z,1015.93
2019-05-14T22:03:28.820Z,1015.93
2019-05-14T22:08:30.391Z,1016.00
2019-05-14T22:13:28.812Z,1015.94
2019-05-14T22:18:28.665Z,1015.91
2019-05-14T22:23:29.220Z,1015.82
2019-05-14T22:28:28.879Z,1015.80
2019-05-14T22:33:28.589Z,1015.81
2019-05-14T22:38:29.345Z,1015.83
2019-05-14T22:43:28.772Z,1015.73
2019-05-14T22:48:28.357Z,1015.72
2019-05-14T22:53:30.476Z,1015.66
2019-05-14T22:58:32.674Z,1015.60
2019-05-14T23:03:28.953Z,1015.60
2019-05-14T23:08:28.126Z,1015.57
2019-05-14T23:13:28.185Z,1015.60
2019-05-14T23:18:28.747Z,1015.61
2019-05-14T23:23:28.244Z,1015.61
2019-05-14T23:28:41.039Z,1015.59
2019-05-14T23:33:28.928Z,1015.55
2019-05-14T23:38:29.008Z,1015.50
2019-05-14T23:43:28.832Z,1015.51
2019-05-14T23:48:27.785Z,1015.51
2019-05-14T23:53:29.119Z,1015.51
2019-05-14T23:58:28.937Z,1015.48
